Time;durP1;ratioP1;P1;durP2;ratioP2;P2;SDS_P1;SDS_P2;PMS_P1;PMS_P2;Temp;Humidity;BMP_temperature;BMP_pressure;BME280_temperature;BME280_humidity;BME280_pressure;Samples;Min_cycle;Max_cycle;Signal;HPM_P1;HPM_P2
2022/11/12 00:00:51;;;;;;;13.68;8.18;;;5.60;99.90;;;;;;5010160;28;20030;-76
2022/11/12 00:03:17;;;;;;;13.07;7.95;;;5.50;99.90;;;;;;5006719;28;20627;-76
2022/11/12 00:05:44;;;;;;;12.85;7.68;;;5.50;99.90;;;;;;5008042;28;20032;-75
2022/11/12 00:08:19;;;;;;;11.52;8.07;;;5.40;99.90;;;;;;5003182;28;20033;-76
2022/11/12 00:10:48;;;;;;;11.38;7.32;;;5.40;99.90;;;;;;5008496;28;20152;-76
2022/11/12 00:13:13;;;;;;;14.43;9.48;;;5.40;99.90;;;;;;5009713;28;20030;-76
2022/11/12 00:15:39;;;;;;;15.27;8.77;;;5.30;99.90;;;;;;5006674;28;20036;-76
2022/11/12 00:18:11;;;;;;;15.40;9.52;;;5.30;99.90;;;;;;5006121;28;20030;-76
2022/11/12 00:20:40;;;;;;;16.48;9.65;;;5.30;99.90;;;;;;5005147;28;20034;-76
2022/11/12 00:23:05;;;;;;;17.52;10.68;;;5.30;99.90;;;;;;5006772;28;20056;-76
2022/11/12 00:25:34;;;;;;;20.08;10.93;;;5.30;99.90;;;;;;5008284;28;20034;-76
2022/11/12 00:28:05;;;;;;;15.85;9.77;;;5.30;99.90;;;;;;5006087;28;20033;-76
2022/11/12 00:30:38;;;;;;;17.33;9.80;;;5.30;99.90;;;;;;5008350;28;20068;-76
2022/11/12 00:33:16;;;;;;;14.38;9.35;;;5.30;99.90;;;;;;5025266;28;20030;-76
2022/11/12 00:35:41;;;;;;;15.57;9.65;;;5.20;99.90;;;;;;5008272;28;20052;-76
2022/11/12 00:38:16;;;;;;;15.57;9.70;;;5.20;99.90;;;;;;5008951;28;20018;-76
2022/11/12 00:40:42;;;;;;;15.93;9.63;;;5.20;99.90;;;;;;5008103;28;20026;-76
2022/11/12 00:43:07;;;;;;;18.33;10.43;;;5.20;99.90;;;;;;5012981;28;20087;-76
2022/11/12 00:45:36;;;;;;;16.77;10.27;;;5.10;99.90;;;;;;5010556;28;20026;-76
2022/11/12 00:48:04;;;;;;;19.42;11.00;;;5.10;99.90;;;;;;5012000;28;20083;-76
2022/11/12 00:50:36;;;;;;;18.48;10.70;;;5.10;99.90;;;;;;5003341;28;20101;-76
2022/11/12 00:53:02;;;;;;;17.05;10.55;;;5.00;99.90;;;;;;5006117;28;20035;-75
2022/11/12 00:55:36;;;;;;;19.42;10.85;;;5.00;99.90;;;;;;5006664;28;20033;-76
2022/11/12 00:58:05;;;;;;;17.50;10.10;;;5.00;99.90;;;;;;5008389;28;20864;-75
2022/11/12 01:00:30;;;;;;;19.30;10.02;;;4.90;99.90;;;;;;5005030;28;20026;-76
2022/11/12 01:02:56;;;;;;;17.38;10.20;;;4.90;99.90;;;;;;5001673;28;20177;-77
2022/11/12 01:05:28;;;;;;;19.55;10.77;;;4.90;99.90;;;;;;5005602;28;20022;-77
2022/11/12 01:07:53;;;;;;;18.35;10.70;;;4.80;99.90;;;;;;5004620;28;20045;-77
2022/11/12 01:10:19;;;;;;;19.33;11.15;;;4.80;99.90;;;;;;5004632;28;20125;-76
2022/11/12 01:12:45;;;;;;;16.85;10.05;;;4.80;99.90;;;;;;5003773;28;20069;-76
2022/11/12 01:15:13;;;;;;;17.55;10.48;;;4.70;99.90;;;;;;5005445;28;20437;-76
2022/11/12 01:17:39;;;;;;;16.90;9.35;;;4.70;99.90;;;;;;5005577;28;20044;-77
2022/11/12 01:20:07;;;;;;;13.30;8.35;;;4.70;99.90;;;;;;5011858;28;20038;-78
2022/11/12 01:22:36;;;;;;;14.15;8.95;;;4.70;99.90;;;;;;5011801;28;20041;-77
2022/11/12 01:25:11;;;;;;;14.95;8.85;;;4.60;99.90;;;;;;5010741;28;20108;-78
2022/11/12 01:27:37;;;;;;;12.65;7.63;;;4.60;99.90;;;;;;5008581;28;20546;-77
2022/11/12 01:30:03;;;;;;;13.93;7.93;;;4.50;99.90;;;;;;5006847;28;20069;-77
2022/11/12 01:32:38;;;;;;;15.35;8.77;;;4.50;99.90;;;;;;5008837;28;20030;-78
2022/11/12 01:35:07;;;;;;;10.95;7.53;;;4.50;99.90;;;;;;5011009;28;20034;-78
2022/11/12 01:37:33;;;;;;;14.02;8.25;;;4.50;99.90;;;;;;5014715;28;20048;-77
2022/11/12 01:39:58;;;;;;;11.40;6.97;;;4.40;99.90;;;;;;5005368;28;20125;-76
2022/11/12 01:42:38;;;;;;;14.43;7.72;;;4.50;99.90;;;;;;5007586;28;20034;-77
2022/11/12 01:45:17;;;;;;;13.80;8.07;;;4.40;99.90;;;;;;5008165;28;20026;-79
2022/11/12 01:47:45;;;;;;;14.02;8.07;;;4.40;99.90;;;;;;5014987;28;20053;-77
2022/11/12 01:50:20;;;;;;;13.63;7.80;;;4.40;99.90;;;;;;5012522;28;20026;-78
2022/11/12 01:52:50;;;;;;;17.48;7.38;;;4.30;99.90;;;;;;5013434;28;20034;-77
2022/11/12 01:55:21;;;;;;;13.32;9.07;;;4.30;99.90;;;;;;5006806;28;20034;-76
2022/11/12 01:58:10;;;;;;;13.63;8.05;;;4.30;99.90;;;;;;5019141;28;20060;-77
2022/11/12 02:00:36;;;;;;;10.40;6.57;;;4.30;99.90;;;;;;5013332;28;20030;-77
2022/11/12 02:03:06;;;;;;;12.52;8.43;;;4.30;99.90;;;;;;5018332;28;20447;-78
2022/11/12 02:05:33;;;;;;;11.95;7.57;;;4.30;99.90;;;;;;5015425;28;20026;-77
2022/11/12 02:08:00;;;;;;;10.95;7.97;;;4.30;99.90;;;;;;5010525;28;20037;-77
2022/11/12 02:10:26;;;;;;;11.18;7.38;;;4.30;99.90;;;;;;5011916;28;20057;-76
2022/11/12 02:15:39;;;;;;;12.50;7.20;;;4.30;99.90;;;;;;5008581;28;20045;-76
2022/11/12 02:18:05;;;;;;;13.00;7.22;;;4.30;99.90;;;;;;5013680;28;20041;-77
2022/11/12 02:20:36;;;;;;;11.55;7.03;;;4.30;99.90;;;;;;5013326;28;20032;-77
2022/11/12 02:23:03;;;;;;;11.63;7.38;;;4.30;99.90;;;;;;5015607;28;20116;-78
2022/11/12 02:25:29;;;;;;;12.93;7.72;;;4.30;99.90;;;;;;5013280;28;20081;-78
2022/11/12 02:27:57;;;;;;;10.80;6.97;;;4.30;99.90;;;;;;5017941;28;20030;-77
2022/11/12 02:30:38;;;;;;;10.50;6.60;;;4.30;99.90;;;;;;5018018;28;20022;-76
2022/11/12 02:33:06;;;;;;;10.48;6.43;;;4.30;99.90;;;;;;5008942;28;20041;-76
2022/11/12 02:35:32;;;;;;;11.10;6.97;;;4.30;99.90;;;;;;5014238;28;20490;-73
2022/11/12 02:37:58;;;;;;;10.50;7.00;;;4.30;99.90;;;;;;5015674;28;20042;-78
2022/11/12 02:40:24;;;;;;;9.50;6.25;;;4.30;99.90;;;;;;5017272;28;20033;-78
2022/11/12 02:42:50;;;;;;;15.18;8.45;;;4.30;99.90;;;;;;5016889;28;20030;-78
2022/11/12 02:45:19;;;;;;;11.15;6.50;;;4.30;99.90;;;;;;5017282;28;20018;-78
2022/11/12 02:47:45;;;;;;;11.23;6.50;;;4.20;99.90;;;;;;5013941;28;20037;-77
2022/11/12 02:50:11;;;;;;;13.32;7.03;;;4.20;99.90;;;;;;5013061;28;20026;-78
2022/11/12 02:52:38;;;;;;;11.02;7.18;;;4.20;99.90;;;;;;5010000;28;20026;-76
2022/11/12 02:55:09;;;;;;;10.75;6.45;;;4.20;99.90;;;;;;5016329;28;20037;-77
2022/11/12 02:57:36;;;;;;;10.70;6.25;;;4.20;99.90;;;;;;5014750;28;20030;-78
2022/11/12 03:00:07;;;;;;;10.30;6.30;;;4.20;99.90;;;;;;5014830;28;20457;-76
2022/11/12 03:02:33;;;;;;;11.45;6.63;;;4.20;99.90;;;;;;5011031;28;20165;-78
2022/11/12 03:04:58;;;;;;;10.32;6.13;;;4.10;99.90;;;;;;5016992;28;20058;-78
2022/11/12 03:07:24;;;;;;;10.25;6.63;;;4.10;99.90;;;;;;5015240;28;20021;-77
2022/11/12 03:09:50;;;;;;;11.40;6.47;;;4.10;99.90;;;;;;5016475;28;20438;-79
2022/11/12 03:12:16;;;;;;;9.68;6.22;;;4.10;99.90;;;;;;5013606;28;20065;-76
2022/11/12 03:14:45;;;;;;;9.98;6.40;;;4.10;99.90;;;;;;5017861;28;20037;-78
2022/11/12 03:17:13;;;;;;;9.68;6.18;;;4.10;99.90;;;;;;5014202;28;20030;-78
2022/11/12 03:19:45;;;;;;;12.15;7.57;;;4.10;99.90;;;;;;5011637;28;20026;-78
2022/11/12 03:22:13;;;;;;;9.20;6.32;;;4.10;99.90;;;;;;5013165;28;20126;-78
2022/11/12 03:24:42;;;;;;;10.52;6.25;;;4.00;99.90;;;;;;5014782;28;20038;-77
2022/11/12 03:27:07;;;;;;;9.93;6.07;;;4.10;99.90;;;;;;5012650;28;20046;-78
2022/11/12 03:29:36;;;;;;;9.77;6.10;;;4.00;99.90;;;;;;5014107;28;20387;-78
2022/11/12 03:32:02;;;;;;;12.40;7.22;;;4.00;99.90;;;;;;5007457;28;20038;-77
2022/11/12 03:34:30;;;;;;;12.23;6.97;;;4.00;99.90;;;;;;5012462;28;20033;-76
2022/11/12 03:36:56;;;;;;;12.57;7.18;;;3.90;99.90;;;;;;5009742;28;20090;-77
2022/11/12 03:39:22;;;;;;;12.88;7.82;;;3.90;99.90;;;;;;5011397;28;20058;-77
2022/11/12 03:41:47;;;;;;;14.55;6.78;;;3.90;99.90;;;;;;5011095;28;20036;-76
2022/11/12 03:44:13;;;;;;;11.98;6.82;;;3.90;99.90;;;;;;5011835;28;20030;-78
2022/11/12 03:46:38;;;;;;;13.00;6.63;;;3.90;99.90;;;;;;5011756;28;20037;-75
2022/11/12 03:49:04;;;;;;;10.00;6.78;;;3.80;99.90;;;;;;5005265;28;20026;-75
2022/11/12 03:51:32;;;;;;;12.10;5.93;;;3.80;99.90;;;;;;5012440;28;20080;-77
2022/11/12 03:53:58;;;;;;;13.55;7.13;;;3.80;99.90;;;;;;5023327;28;20025;-78
2022/11/12 03:56:23;;;;;;;12.23;6.45;;;3.80;99.90;;;;;;5015768;28;20026;-77
2022/11/12 03:58:52;;;;;;;14.55;7.43;;;3.80;99.90;;;;;;5008092;28;20104;-77
2022/11/12 04:01:17;;;;;;;12.32;6.68;;;3.80;99.90;;;;;;5011250;28;20497;-79
2022/11/12 04:03:43;;;;;;;11.40;6.88;;;3.80;99.90;;;;;;5016146;28;20030;-77
2022/11/12 04:08:59;;;;;;;13.90;7.68;;;3.80;99.90;;;;;;5017025;28;20044;-78
2022/11/12 04:11:27;;;;;;;13.50;7.57;;;3.80;99.90;;;;;;5012235;28;20471;-77
2022/11/12 04:13:56;;;;;;;13.77;7.57;;;3.80;99.90;;;;;;5006538;28;20041;-78
2022/11/12 04:22:13;;;;;;;13.65;8.00;;;3.90;99.90;;;;;;5008655;28;20029;-77
2022/11/12 04:27:26;;;;;;;14.48;7.97;;;3.90;99.90;;;;;;5009966;28;20045;-76
2022/11/12 04:32:39;;;;;;;14.25;8.52;;;3.90;99.90;;;;;;5007103;28;20055;-76
2022/11/12 04:35:08;;;;;;;14.02;7.88;;;3.80;99.90;;;;;;5002605;28;20053;-77
2022/11/12 04:37:47;;;;;;;11.32;7.70;;;3.80;99.90;;;;;;5012207;28;20092;-77
2022/11/12 04:46:03;;;;;;;13.68;7.30;;;3.80;99.90;;;;;;5006859;28;20028;-77
2022/11/12 04:48:29;;;;;;;13.10;8.23;;;3.80;99.90;;;;;;5008697;28;20030;-76
2022/11/12 04:52:03;;;;;;;17.77;8.27;;;3.90;99.90;;;;;;5009159;28;20281;-76
2022/11/12 04:53:59;;;;;;;10.63;6.47;;;3.80;99.90;;;;;;5011026;28;20022;-76
2022/11/12 04:56:27;;;;;;;16.13;9.25;;;3.80;99.90;;;;;;5012257;28;20018;-77
2022/11/12 04:58:53;;;;;;;15.68;8.10;;;3.80;99.90;;;;;;5008401;28;20026;-77
2022/11/12 05:01:22;;;;;;;14.90;8.25;;;3.90;99.90;;;;;;5002669;28;20037;-77
2022/11/12 05:03:47;;;;;;;11.88;8.00;;;3.90;99.90;;;;;;5004967;28;20037;-77
2022/11/12 05:08:57;;;;;;;20.27;7.97;;;3.90;99.90;;;;;;5005356;28;20041;-77
2022/11/12 05:11:22;;;;;;;13.35;8.15;;;3.90;99.90;;;;;;5006280;28;20034;-77
2022/11/12 05:13:48;;;;;;;16.98;8.90;;;3.90;99.90;;;;;;5010376;28;20030;-77
2022/11/12 05:16:14;;;;;;;13.35;8.02;;;3.90;99.90;;;;;;5011242;28;20371;-78
2022/11/12 05:18:45;;;;;;;14.52;8.60;;;3.90;99.90;;;;;;5008832;28;20034;-76
2022/11/12 05:23:58;;;;;;;13.90;7.93;;;3.90;99.90;;;;;;5008531;28;20037;-77
2022/11/12 05:26:26;;;;;;;14.80;7.10;;;3.90;99.90;;;;;;5005524;28;20034;-76
2022/11/12 05:28:58;;;;;;;15.35;8.93;;;3.90;99.90;;;;;;5009610;28;20029;-76
2022/11/12 05:31:24;;;;;;;13.45;8.07;;;3.90;99.90;;;;;;5009350;28;20368;-76
2022/11/12 05:33:49;;;;;;;17.98;8.80;;;3.90;99.90;;;;;;5008706;28;20044;-76
2022/11/12 05:36:15;;;;;;;11.63;7.85;;;3.90;99.90;;;;;;5016422;28;20034;-76
2022/11/12 05:38:40;;;;;;;13.20;7.82;;;3.90;99.90;;;;;;5013486;28;20525;-76
2022/11/12 05:41:07;;;;;;;13.88;7.53;;;3.90;99.90;;;;;;5010409;28;20038;-76
2022/11/12 05:43:33;;;;;;;13.60;8.00;;;3.90;99.90;;;;;;5009497;28;20395;-77
2022/11/12 05:45:58;;;;;;;15.07;8.02;;;3.90;99.90;;;;;;5006688;28;20026;-76
2022/11/12 05:48:30;;;;;;;13.48;7.80;;;3.90;99.90;;;;;;5006313;28;20060;-71
2022/11/12 05:50:58;;;;;;;12.88;7.82;;;3.90;99.90;;;;;;5003833;28;20018;-72
2022/11/12 05:53:27;;;;;;;12.85;8.20;;;3.90;99.90;;;;;;5007994;28;20026;-71
2022/11/12 05:55:53;;;;;;;13.82;7.43;;;3.90;99.90;;;;;;5009325;28;20026;-72
2022/11/12 05:58:18;;;;;;;10.13;6.25;;;3.90;99.90;;;;;;5003694;28;20109;-71
2022/11/12 06:00:44;;;;;;;8.88;5.65;;;3.90;99.90;;;;;;4995264;28;20030;-72
2022/11/12 06:03:11;;;;;;;16.33;8.52;;;4.00;99.90;;;;;;5006075;28;20390;-72
2022/11/12 06:05:37;;;;;;;12.35;8.00;;;4.00;99.90;;;;;;5006847;28;20025;-75
2022/11/12 06:08:07;;;;;;;12.90;6.93;;;4.10;99.90;;;;;;4995354;28;20034;-75
2022/11/12 06:10:33;;;;;;;9.75;6.43;;;4.10;99.90;;;;;;5006892;28;20032;-76
2022/11/12 06:12:58;;;;;;;12.10;7.25;;;4.00;99.90;;;;;;5008904;28;20026;-77
2022/11/12 06:15:30;;;;;;;10.68;5.85;;;4.00;99.90;;;;;;5006672;28;20034;-76
2022/11/12 06:17:55;;;;;;;9.85;5.75;;;4.00;99.90;;;;;;5004375;28;20406;-77
2022/11/12 06:20:22;;;;;;;10.40;6.18;;;4.00;99.90;;;;;;5008364;28;20045;-76
2022/11/12 06:22:48;;;;;;;9.68;5.97;;;4.00;99.90;;;;;;5007358;28;20038;-75
2022/11/12 06:25:14;;;;;;;10.77;5.68;;;3.90;99.90;;;;;;5007773;28;20079;-75
2022/11/12 06:27:41;;;;;;;9.82;5.70;;;3.90;99.90;;;;;;5009486;28;20030;-76
2022/11/12 06:30:09;;;;;;;11.25;5.95;;;3.90;99.90;;;;;;5004045;28;20597;-75
2022/11/12 06:32:38;;;;;;;11.07;6.18;;;3.90;99.90;;;;;;4998563;28;20034;-76
2022/11/12 06:35:04;;;;;;;8.05;5.50;;;3.80;99.90;;;;;;5005507;28;20081;-76
2022/11/12 06:37:29;;;;;;;9.15;5.60;;;3.80;99.90;;;;;;5003000;28;20068;-76
2022/11/12 06:39:58;;;;;;;11.00;5.95;;;3.80;99.90;;;;;;5010627;28;20387;-76
2022/11/12 06:42:23;;;;;;;9.85;5.57;;;3.80;99.90;;;;;;5009899;28;20030;-75
2022/11/12 06:44:49;;;;;;;10.57;6.15;;;3.80;99.90;;;;;;5012830;28;20034;-75
2022/11/12 06:47:30;;;;;;;10.18;5.90;;;3.80;99.90;;;;;;5012396;28;20030;-73
2022/11/12 06:49:58;;;;;;;13.73;5.95;;;3.70;99.90;;;;;;5017899;28;20037;-79
2022/11/12 06:52:27;;;;;;;9.70;5.93;;;3.70;99.90;;;;;;5014035;28;20566;-79
2022/11/12 06:54:58;;;;;;;8.32;5.47;;;3.70;99.90;;;;;;5017079;28;20072;-79
2022/11/12 06:57:30;;;;;;;10.73;6.30;;;3.70;99.90;;;;;;5017057;28;20048;-79
2022/11/12 06:59:58;;;;;;;12.57;7.72;;;3.80;99.90;;;;;;5018350;28;20029;-79
2022/11/12 07:02:24;;;;;;;13.38;7.95;;;3.80;99.90;;;;;;5047810;28;20548;-78
2022/11/12 07:04:50;;;;;;;9.85;6.25;;;3.80;99.90;;;;;;5018428;28;20026;-80
2022/11/12 07:07:18;;;;;;;9.98;5.47;;;3.80;99.90;;;;;;5019043;28;20033;-78
2022/11/12 07:09:44;;;;;;;12.93;7.72;;;3.80;99.90;;;;;;5013197;28;20022;-79
2022/11/12 07:12:13;;;;;;;11.15;6.05;;;3.90;99.90;;;;;;5018473;28;20065;-79
2022/11/12 07:14:38;;;;;;;9.60;6.10;;;3.90;99.90;;;;;;5020640;28;20108;-80
2022/11/12 07:17:04;;;;;;;9.30;4.90;;;3.90;99.90;;;;;;5014933;28;20115;-80
2022/11/12 07:19:29;;;;;;;7.90;5.95;;;3.90;99.90;;;;;;5023449;28;20501;-75
2022/11/12 07:21:58;;;;;;;11.98;6.13;;;3.90;99.90;;;;;;5013412;28;20030;-76
2022/11/12 07:24:24;;;;;;;11.57;6.53;;;3.90;99.90;;;;;;5008540;28;20039;-76
2022/11/12 07:26:49;;;;;;;12.05;7.05;;;4.00;99.90;;;;;;5015706;28;20022;-78
2022/11/12 07:29:15;;;;;;;12.30;6.90;;;4.00;99.90;;;;;;5015736;28;20133;-76
2022/11/12 07:31:44;;;;;;;13.13;7.70;;;4.00;99.90;;;;;;5022188;28;20049;-74
2022/11/12 07:34:09;;;;;;;11.32;7.40;;;4.00;99.90;;;;;;5012418;28;20495;-75
2022/11/12 07:36:35;;;;;;;15.80;8.55;;;4.00;99.90;;;;;;5014771;28;20030;-74
2022/11/12 07:39:00;;;;;;;9.40;6.47;;;4.10;99.90;;;;;;5014962;28;20021;-74
2022/11/12 07:41:26;;;;;;;9.80;6.63;;;4.10;99.90;;;;;;5014323;28;20045;-75
2022/11/12 07:43:53;;;;;;;12.88;6.97;;;4.20;99.90;;;;;;5009998;28;20026;-74
2022/11/12 07:46:24;;;;;;;10.32;6.75;;;4.20;99.90;;;;;;5011486;28;20022;-74
2022/11/12 07:48:51;;;;;;;9.70;6.35;;;4.20;99.90;;;;;;5003451;28;20025;-74
2022/11/12 07:51:19;;;;;;;12.10;6.78;;;4.30;99.90;;;;;;5014062;28;20022;-73
2022/11/12 07:53:46;;;;;;;14.48;6.68;;;4.30;99.90;;;;;;5008407;28;20485;-77
2022/11/12 07:56:16;;;;;;;9.77;6.30;;;4.40;99.90;;;;;;5012807;28;20030;-74
2022/11/12 07:58:47;;;;;;;9.98;6.80;;;4.40;99.90;;;;;;5012434;28;20022;-74
2022/11/12 08:01:32;;;;;;;11.63;6.68;;;4.40;99.90;;;;;;5008024;28;20026;-75
2022/11/12 08:04:02;;;;;;;13.65;7.45;;;4.40;99.90;;;;;;5012898;28;20109;-73
2022/11/12 08:06:30;;;;;;;11.13;7.60;;;4.40;99.90;;;;;;5013904;28;20022;-74
2022/11/12 08:08:57;;;;;;;14.73;7.97;;;4.40;99.90;;;;;;5003157;28;20030;-74
2022/11/12 08:11:23;;;;;;;13.27;8.57;;;4.50;99.90;;;;;;5005016;28;20648;-76
2022/11/12 08:13:49;;;;;;;10.15;7.07;;;4.50;99.90;;;;;;5005848;28;20156;-76
2022/11/12 08:16:15;;;;;;;13.40;6.88;;;4.50;99.90;;;;;;5011759;28;20026;-76
2022/11/12 08:18:42;;;;;;;10.38;6.22;;;4.50;99.90;;;;;;5005402;28;20041;-76
2022/11/12 08:21:12;;;;;;;9.48;6.03;;;4.60;99.90;;;;;;5009066;28;20030;-76
2022/11/12 08:23:38;;;;;;;9.15;6.00;;;4.60;99.90;;;;;;5007710;28;20042;-75
2022/11/12 08:26:07;;;;;;;10.00;6.05;;;4.70;99.90;;;;;;5011894;28;20505;-76
2022/11/12 08:28:34;;;;;;;9.95;5.93;;;4.70;99.90;;;;;;5007198;28;20030;-75
2022/11/12 08:31:14;;;;;;;10.75;6.05;;;4.80;99.90;;;;;;5008746;28;20053;-76
2022/11/12 08:33:40;;;;;;;12.50;6.65;;;4.80;99.90;;;;;;5010469;28;20021;-76
2022/11/12 08:36:11;;;;;;;10.45;6.55;;;4.90;99.90;;;;;;5011908;28;20042;-75
2022/11/12 08:38:43;;;;;;;8.60;5.22;;;4.90;99.90;;;;;;5010032;28;20018;-75
2022/11/12 08:41:14;;;;;;;7.30;5.10;;;5.00;99.90;;;;;;5007510;28;20471;-76
2022/11/12 08:43:41;;;;;;;8.55;5.35;;;5.00;99.90;;;;;;5008954;28;20104;-76
2022/11/12 08:46:06;;;;;;;8.00;4.72;;;5.10;99.90;;;;;;5009601;28;20034;-77
2022/11/12 08:48:33;;;;;;;7.68;4.72;;;5.10;99.90;;;;;;5008588;28;20173;-76
2022/11/12 08:51:05;;;;;;;8.23;5.93;;;5.20;99.90;;;;;;5007375;28;20033;-76
2022/11/12 08:53:31;;;;;;;7.35;5.43;;;5.20;99.90;;;;;;5011573;28;20041;-76
2022/11/12 08:56:00;;;;;;;7.32;4.90;;;5.30;99.90;;;;;;5008792;28;20523;-76
2022/11/12 08:58:29;;;;;;;6.95;4.40;;;5.40;99.90;;;;;;5010074;28;20034;-74
2022/11/12 09:01:04;;;;;;;7.60;5.28;;;5.40;99.90;;;;;;5009126;28;20123;-75
2022/11/12 09:03:30;;;;;;;7.25;4.72;;;5.40;99.90;;;;;;5010737;28;20026;-75
2022/11/12 09:05:55;;;;;;;11.25;5.25;;;5.50;99.90;;;;;;5013080;28;20033;-76
2022/11/12 09:08:24;;;;;;;9.43;5.03;;;5.60;99.90;;;;;;5006921;28;20029;-76
2022/11/12 09:10:51;;;;;;;11.10;5.47;;;5.60;99.90;;;;;;5009043;28;20577;-75
2022/11/12 09:13:17;;;;;;;10.07;5.63;;;5.70;99.90;;;;;;5015919;28;20026;-76
2022/11/12 09:15:43;;;;;;;9.60;4.82;;;5.80;99.90;;;;;;5011074;28;20056;-75
2022/11/12 09:18:14;;;;;;;6.97;5.07;;;5.80;99.90;;;;;;5007305;28;20040;-75
2022/11/12 09:20:40;;;;;;;6.53;4.70;;;5.80;99.90;;;;;;5011141;28;20064;-75
2022/11/12 09:23:10;;;;;;;9.00;4.63;;;5.90;99.90;;;;;;5007721;28;20026;-75
2022/11/12 09:25:36;;;;;;;8.30;4.90;;;6.00;99.90;;;;;;5002566;28;20030;-76
2022/11/12 09:28:10;;;;;;;8.18;5.05;;;6.00;99.90;;;;;;5010056;28;20529;-76
2022/11/12 09:30:46;;;;;;;8.18;4.90;;;6.00;99.90;;;;;;5006794;28;20035;-76
2022/11/12 09:33:16;;;;;;;9.00;5.25;;;6.00;99.90;;;;;;5010604;28;20026;-75
2022/11/12 09:35:42;;;;;;;7.32;4.95;;;6.10;99.90;;;;;;5009346;28;20068;-75
2022/11/12 09:38:13;;;;;;;7.45;5.00;;;6.10;99.90;;;;;;5011802;28;20487;-75
2022/11/12 09:40:51;;;;;;;7.38;4.90;;;6.20;99.90;;;;;;5011829;28;20092;-75
2022/11/12 09:43:23;;;;;;;10.27;4.78;;;6.30;99.90;;;;;;5007077;28;20441;-75
2022/11/12 09:46:16;;;;;;;11.95;5.03;;;6.40;99.90;;;;;;5009629;28;20111;-77
2022/11/12 09:48:48;;;;;;;8.68;4.90;;;6.50;99.90;;;;;;5013364;28;20030;-77
2022/11/12 09:51:27;;;;;;;6.88;4.47;;;6.50;99.90;;;;;;5010658;28;20375;-76
2022/11/12 09:54:24;;;;;;;7.78;4.63;;;6.60;99.90;;;;;;5011615;28;20112;-76
2022/11/12 09:56:56;;;;;;;7.55;4.47;;;6.60;99.90;;;;;;5011204;28;20506;-76
2022/11/12 09:59:33;;;;;;;6.63;4.45;;;6.60;99.90;;;;;;5013813;28;20053;-76
2022/11/12 10:02:26;;;;;;;7.35;4.18;;;6.70;99.90;;;;;;5012064;28;20029;-76
2022/11/12 10:05:17;;;;;;;6.97;4.25;;;6.80;99.90;;;;;;5013747;28;20283;-76
2022/11/12 10:07:48;;;;;;;7.50;4.47;;;6.90;99.90;;;;;;5007653;28;20025;-76
2022/11/12 10:10:19;;;;;;;6.85;3.90;;;6.90;99.90;;;;;;5013105;28;20026;-76
2022/11/12 10:13:24;;;;;;;7.65;4.43;;;7.00;99.90;;;;;;5007376;28;20026;-76
2022/11/12 10:16:43;;;;;;;7.22;4.95;;;7.00;99.90;;;;;;5011226;28;20045;-76
2022/11/12 10:19:33;;;;;;;10.18;4.53;;;7.10;99.90;;;;;;5016818;28;20026;-75
2022/11/12 10:22:17;;;;;;;6.40;4.97;;;7.10;99.90;;;;;;4999547;28;20068;-76
2022/11/12 10:24:43;;;;;;;9.85;4.93;;;7.20;99.90;;;;;;5010202;28;20166;-74
2022/11/12 10:27:19;;;;;;;7.13;4.60;;;7.20;99.90;;;;;;5013586;28;20542;-75
2022/11/12 10:29:54;;;;;;;6.10;4.45;;;7.20;99.90;;;;;;5009099;28;20080;-75
2022/11/12 10:32:23;;;;;;;5.90;4.03;;;7.30;99.90;;;;;;5008845;28;20033;-75
2022/11/12 10:34:57;;;;;;;6.65;4.28;;;7.30;99.90;;;;;;5007163;28;20438;-75
2022/11/12 10:37:46;;;;;;;7.25;4.43;;;7.30;99.90;;;;;;5007859;28;20122;-75
2022/11/12 10:40:31;;;;;;;5.38;3.90;;;7.30;99.90;;;;;;5011830;28;20025;-75
2022/11/12 10:43:01;;;;;;;;;;;7.40;99.90;;;;;;5012077;28;20072;-75
2022/11/12 10:45:33;;;;;;;6.97;4.00;;;7.40;99.90;;;;;;5010998;28;19921;-76
2022/11/12 10:47:59;;;;;;;6.25;4.30;;;7.40;99.90;;;;;;5012637;28;20026;-75
2022/11/12 10:50:39;;;;;;;5.30;4.25;;;7.50;99.90;;;;;;5014151;28;20022;-77
2022/11/12 10:53:09;;;;;;;5.00;3.92;;;7.50;99.90;;;;;;5015236;28;20104;-77
2022/11/12 10:55:37;;;;;;;5.85;3.72;;;7.60;99.90;;;;;;5013257;28;20053;-76
2022/11/12 10:58:15;;;;;;;6.55;3.55;;;7.60;99.90;;;;;;5015059;28;20096;-76
2022/11/12 11:01:11;;;;;;;5.25;3.72;;;7.60;99.90;;;;;;5012036;28;20037;-76
2022/11/12 11:03:54;;;;;;;7.72;4.20;;;7.70;99.90;;;;;;5009655;28;20029;-77
2022/11/12 11:06:23;;;;;;;6.85;3.83;;;7.70;99.90;;;;;;5004194;28;20037;-77
2022/11/12 11:08:51;;;;;;;6.55;4.53;;;7.70;99.90;;;;;;5014433;28;20022;-75
2022/11/12 11:11:26;;;;;;;7.20;5.13;;;7.70;99.90;;;;;;5014569;28;20041;-76
2022/11/12 11:14:22;;;;;;;7.95;4.10;;;7.70;99.90;;;;;;5013946;28;20034;-76
2022/11/12 11:17:07;;;;;;;8.00;3.90;;;7.70;99.90;;;;;;5014979;28;20112;-77
2022/11/12 11:19:42;;;;;;;7.07;3.97;;;7.80;99.90;;;;;;5009669;28;20037;-75
2022/11/12 11:22:17;;;;;;;6.05;3.88;;;7.80;99.90;;;;;;5010030;28;20026;-75
2022/11/12 11:25:03;;;;;;;4.80;3.65;;;7.90;99.90;;;;;;5011976;28;20403;-76
2022/11/12 11:27:40;;;;;;;6.68;3.90;;;7.90;99.90;;;;;;5009426;28;20024;-75
2022/11/12 11:30:16;;;;;;;5.55;4.15;;;8.00;99.90;;;;;;5010213;28;20068;-75
2022/11/12 11:33:13;;;;;;;6.18;3.65;;;8.00;99.90;;;;;;5013586;28;20462;-76
2022/11/12 11:36:01;;;;;;;6.05;4.47;;;8.10;99.90;;;;;;5013881;28;20065;-76
2022/11/12 11:38:39;;;;;;;7.22;4.50;;;8.10;99.90;;;;;;5004826;28;20034;-76
2022/11/12 11:41:30;;;;;;;9.55;5.85;;;8.20;99.90;;;;;;4999800;28;20044;-76
2022/11/12 11:44:18;;;;;;;9.85;5.03;;;8.20;99.90;;;;;;5013318;28;20030;-78
2022/11/12 11:47:14;;;;;;;12.05;6.20;;;8.30;99.90;;;;;;5011202;28;20061;-76
2022/11/12 11:50:05;;;;;;;7.60;4.50;;;8.30;99.90;;;;;;5003978;28;20049;-76
2022/11/12 11:52:52;;;;;;;6.20;3.78;;;8.40;99.90;;;;;;5002672;28;20033;-75
2022/11/12 11:55:39;;;;;;;8.55;5.15;;;8.40;99.90;;;;;;5011170;28;20065;-75
2022/11/12 11:58:22;;;;;;;8.85;5.00;;;8.50;99.90;;;;;;5017920;28;20441;-76
2022/11/12 12:01:07;;;;;;;8.40;4.57;;;8.50;99.90;;;;;;5007986;28;20023;-76
2022/11/12 12:03:51;;;;;;;13.10;6.55;;;8.60;99.90;;;;;;5014128;28;20030;-77
2022/11/12 12:06:28;;;;;;;13.10;7.43;;;8.60;99.90;;;;;;5014370;28;20096;-77
2022/11/12 12:09:22;;;;;;;8.30;5.00;;;8.60;99.90;;;;;;5010708;28;20034;-77
2022/11/12 12:12:23;;;;;;;8.18;4.25;;;8.70;99.90;;;;;;5016862;28;20040;-81
2022/11/12 12:15:03;;;;;;;6.20;4.22;;;8.70;99.90;;;;;;4999302;28;20515;-78
2022/11/12 12:17:44;;;;;;;8.27;4.55;;;8.70;99.90;;;;;;5011252;28;20022;-77
2022/11/12 12:20:40;;;;;;;6.53;3.67;;;8.70;99.90;;;;;;5006096;28;20058;-77
2022/11/12 12:23:25;;;;;;;7.40;4.60;;;8.80;99.90;;;;;;5002036;28;20109;-78
2022/11/12 12:25:55;;;;;;;5.60;4.60;;;8.80;99.90;;;;;;5013095;28;20570;-77
2022/11/12 12:28:52;;;;;;;6.63;4.55;;;8.90;99.90;;;;;;5012066;28;20118;-77
2022/11/12 12:31:27;;;;;;;9.82;4.70;;;8.90;99.90;;;;;;5008713;28;20371;-77
2022/11/12 12:33:57;;;;;;;8.18;4.60;;;8.90;99.90;;;;;;5013517;28;20056;-76
2022/11/12 12:36:36;;;;;;;6.75;4.63;;;9.00;99.90;;;;;;5013572;28;20057;-79
2022/11/12 12:39:23;;;;;;;6.13;4.28;;;9.00;99.90;;;;;;5014636;28;20025;-77
2022/11/12 12:41:59;;;;;;;7.53;4.38;;;9.00;99.90;;;;;;5011842;28;20557;-78
2022/11/12 12:47:20;;;;;;;7.63;4.28;;;9.10;99.90;;;;;;5015451;28;20037;-77
2022/11/12 12:49:48;;;;;;;5.60;3.80;;;9.10;99.90;;;;;;5013716;28;20483;-78
2022/11/12 12:52:14;;;;;;;7.13;3.97;;;9.10;99.90;;;;;;5021178;28;20026;-76
2022/11/12 12:54:53;;;;;;;6.68;3.97;;;9.20;99.90;;;;;;5013964;28;20043;-77
2022/11/12 12:57:38;;;;;;;5.35;3.97;;;9.20;99.90;;;;;;5013820;28;20030;-77
2022/11/12 13:00:39;;;;;;;10.73;5.78;;;9.20;99.90;;;;;;5006009;28;20076;-76
2022/11/12 13:03:08;;;;;;;5.95;4.28;;;9.20;99.90;;;;;;5006943;28;20180;-77
2022/11/12 13:05:38;;;;;;;7.88;4.53;;;9.20;99.90;;;;;;5011665;28;20076;-76
2022/11/12 13:08:23;;;;;;;6.90;3.85;;;9.30;99.90;;;;;;5007566;28;20036;-76
2022/11/12 13:10:52;;;;;;;7.28;4.38;;;9.30;99.90;;;;;;5009737;28;20060;-76
2022/11/12 13:13:28;;;;;;;12.27;5.97;;;9.40;99.90;;;;;;5008560;28;20026;-76
2022/11/12 13:15:56;;;;;;;7.88;4.30;;;9.40;99.90;;;;;;5003105;28;20033;-76
2022/11/12 13:18:43;;;;;;;8.73;4.80;;;9.40;99.90;;;;;;5005955;28;20074;-76
2022/11/12 13:21:19;;;;;;;8.13;4.40;;;9.40;99.90;;;;;;5006135;28;20034;-77
2022/11/12 13:26:54;;;;;;;6.38;4.05;;;9.50;99.90;;;;;;5005795;28;20029;-77
2022/11/12 13:29:27;;;;;;;8.93;5.00;;;9.50;99.90;;;;;;5006149;28;20475;-77
2022/11/12 13:32:30;;;;;;;8.98;5.05;;;9.60;99.90;;;;;;5002220;28;20493;-77
2022/11/12 13:35:36;;;;;;;8.75;5.20;;;9.60;99.90;;;;;;5007585;28;20025;-77
2022/11/12 13:38:09;;;;;;;6.93;4.53;;;9.60;99.90;;;;;;5008490;28;20041;-78
2022/11/12 13:44:03;;;;;;;9.25;5.00;;;9.60;99.90;;;;;;5005986;28;20123;-77
2022/11/12 13:46:32;;;;;;;8.77;5.20;;;9.60;99.90;;;;;;5010976;28;20026;-78
2022/11/12 13:49:01;;;;;;;7.32;4.60;;;9.70;99.90;;;;;;5002875;28;20029;-77
2022/11/12 13:51:27;;;;;;;5.65;3.78;;;9.70;99.90;;;;;;5006998;28;20026;-77